sensor_id;sensor_type;location;lat;lon;timestamp;pressure;altitude;pressure_sealevel;temperature;humidity
60487;BME280;46327;39.866;-0.072;2022-08-21T00:00:49;101687.48;;;27.88;54.15
60487;BME280;46327;39.866;-0.072;2022-08-21T00:03:17;101689.69;;;28.05;54.27
60487;BME280;46327;39.866;-0.072;2022-08-21T00:05:48;101689.43;;;27.94;54.47
60487;BME280;46327;39.866;-0.072;2022-08-21T00:08:17;101687.34;;;27.68;54.38
60487;BME280;46327;39.866;-0.072;2022-08-21T00:10:47;101679.78;;;28.07;54.05
60487;BME280;46327;39.866;-0.072;2022-08-21T00:13:15;101680.30;;;27.99;54.19
60487;BME280;46327;39.866;-0.072;2022-08-21T00:15:43;101676.18;;;28.03;55.02
60487;BME280;46327;39.866;-0.072;2022-08-21T00:18:11;101672.54;;;27.42;55.34
60487;BME280;46327;39.866;-0.072;2022-08-21T00:20:40;101670.60;;;27.26;55.75
60487;BME280;46327;39.866;-0.072;2022-08-21T00:23:07;101668.96;;;27.35;55.58
60487;BME280;46327;39.866;-0.072;2022-08-21T00:25:36;101659.30;;;26.97;56.29
60487;BME280;46327;39.866;-0.072;2022-08-21T00:28:03;101659.54;;;27.50;55.73
60487;BME280;46327;39.866;-0.072;2022-08-21T00:30:31;101657.55;;;27.49;55.26
60487;BME280;46327;39.866;-0.072;2022-08-21T00:33:00;101656.21;;;27.71;55.09
60487;BME280;46327;39.866;-0.072;2022-08-21T00:35:30;101654.91;;;27.60;55.26
60487;BME280;46327;39.866;-0.072;2022-08-21T00:37:59;101650.36;;;27.10;55.82
60487;BME280;46327;39.866;-0.072;2022-08-21T00:40:29;101644.55;;;27.42;55.88
60487;BME280;46327;39.866;-0.072;2022-08-21T00:42:57;101638.08;;;26.87;56.29
60487;BME280;46327;39.866;-0.072;2022-08-21T00:45:24;101631.61;;;27.11;56.22
60487;BME280;46327;39.866;-0.072;2022-08-21T00:47:52;101631.97;;;26.33;56.97
60487;BME280;46327;39.866;-0.072;2022-08-21T00:50:23;101626.15;;;26.93;56.26
60487;BME280;46327;39.866;-0.072;2022-08-21T00:52:53;101624.95;;;26.78;56.62
60487;BME280;46327;39.866;-0.072;2022-08-21T00:55:22;101622.43;;;27.30;56.09
60487;BME280;46327;39.866;-0.072;2022-08-21T00:57:55;101617.96;;;26.63;56.48
60487;BME280;46327;39.866;-0.072;2022-08-21T01:00:27;101617.18;;;26.81;56.53
60487;BME280;46327;39.866;-0.072;2022-08-21T01:02:55;101613.86;;;27.07;55.83
60487;BME280;46327;39.866;-0.072;2022-08-21T01:05:22;101608.42;;;27.18;55.44
60487;BME280;46327;39.866;-0.072;2022-08-21T01:07:49;101603.71;;;27.34;54.88
60487;BME280;46327;39.866;-0.072;2022-08-21T01:10:17;101600.54;;;27.03;55.43
60487;BME280;46327;39.866;-0.072;2022-08-21T01:12:45;101596.16;;;26.86;55.43
60487;BME280;46327;39.866;-0.072;2022-08-21T01:15:13;101590.99;;;26.37;55.30
60487;BME280;46327;39.866;-0.072;2022-08-21T01:17:41;101585.01;;;27.01;54.36
60487;BME280;46327;39.866;-0.072;2022-08-21T01:20:11;101579.17;;;27.11;54.21
60487;BME280;46327;39.866;-0.072;2022-08-21T01:22:38;101579.32;;;27.00;54.06
60487;BME280;46327;39.866;-0.072;2022-08-21T01:25:08;101577.27;;;26.84;55.04
60487;BME280;46327;39.866;-0.072;2022-08-21T01:27:36;101580.43;;;26.67;55.76
60487;BME280;46327;39.866;-0.072;2022-08-21T01:30:09;101582.23;;;27.07;54.83
60487;BME280;46327;39.866;-0.072;2022-08-21T01:32:37;101580.05;;;26.07;56.35
60487;BME280;46327;39.866;-0.072;2022-08-21T01:35:06;101581.14;;;26.44;56.28
60487;BME280;46327;39.866;-0.072;2022-08-21T01:37:34;101579.82;;;26.58;55.46
60487;BME280;46327;39.866;-0.072;2022-08-21T01:40:02;101580.33;;;26.71;54.76
60487;BME280;46327;39.866;-0.072;2022-08-21T01:42:30;101576.35;;;27.05;54.48
60487;BME280;46327;39.866;-0.072;2022-08-21T01:44:58;101570.59;;;26.78;54.66
60487;BME280;46327;39.866;-0.072;2022-08-21T01:47:25;101569.84;;;27.10;54.33
60487;BME280;46327;39.866;-0.072;2022-08-21T01:49:53;101564.27;;;27.18;53.66
60487;BME280;46327;39.866;-0.072;2022-08-21T01:52:26;101561.14;;;27.13;52.37
60487;BME280;46327;39.866;-0.072;2022-08-21T01:54:53;101557.24;;;27.35;51.05
60487;BME280;46327;39.866;-0.072;2022-08-21T01:57:21;101553.97;;;27.40;50.70
60487;BME280;46327;39.866;-0.072;2022-08-21T01:59:48;101554.14;;;26.91;50.76
60487;BME280;46327;39.866;-0.072;2022-08-21T02:02:16;101550.85;;;27.35;51.09
60487;BME280;46327;39.866;-0.072;2022-08-21T02:04:43;101551.06;;;27.21;50.86
60487;BME280;46327;39.866;-0.072;2022-08-21T02:07:11;101556.08;;;26.75;51.81
60487;BME280;46327;39.866;-0.072;2022-08-21T02:09:38;101565.10;;;26.30;52.49
60487;BME280;46327;39.866;-0.072;2022-08-21T02:12:05;101566.68;;;26.34;52.71
60487;BME280;46327;39.866;-0.072;2022-08-21T02:14:33;101566.38;;;26.51;52.38
60487;BME280;46327;39.866;-0.072;2022-08-21T02:17:00;101564.35;;;26.78;52.35
60487;BME280;46327;39.866;-0.072;2022-08-21T02:19:27;101560.27;;;26.84;51.54
60487;BME280;46327;39.866;-0.072;2022-08-21T02:21:55;101561.66;;;26.77;51.06
60487;BME280;46327;39.866;-0.072;2022-08-21T02:24:23;101560.46;;;26.96;50.35
60487;BME280;46327;39.866;-0.072;2022-08-21T02:26:50;101556.59;;;26.93;50.09
60487;BME280;46327;39.866;-0.072;2022-08-21T02:29:18;101552.31;;;27.18;49.51
60487;BME280;46327;39.866;-0.072;2022-08-21T02:31:45;101549.91;;;27.22;49.25
60487;BME280;46327;39.866;-0.072;2022-08-21T02:34:13;101548.29;;;27.44;49.18
60487;BME280;46327;39.866;-0.072;2022-08-21T02:36:40;101548.47;;;26.97;49.05
60487;BME280;46327;39.866;-0.072;2022-08-21T02:39:08;101548.77;;;27.09;49.34
60487;BME280;46327;39.866;-0.072;2022-08-21T02:41:35;101546.03;;;26.76;49.39
60487;BME280;46327;39.866;-0.072;2022-08-21T02:44:03;101541.74;;;26.58;49.79
60487;BME280;46327;39.866;-0.072;2022-08-21T02:46:31;101538.39;;;27.32;48.99
60487;BME280;46327;39.866;-0.072;2022-08-21T02:48:58;101537.63;;;27.65;49.01
60487;BME280;46327;39.866;-0.072;2022-08-21T02:51:26;101539.16;;;27.30;49.41
60487;BME280;46327;39.866;-0.072;2022-08-21T02:53:54;101538.46;;;27.36;49.37
60487;BME280;46327;39.866;-0.072;2022-08-21T02:56:21;101537.87;;;27.11;49.76
60487;BME280;46327;39.866;-0.072;2022-08-21T02:58:51;101531.63;;;27.57;49.04
60487;BME280;46327;39.866;-0.072;2022-08-21T03:01:19;101532.70;;;27.67;48.77
60487;BME280;46327;39.866;-0.072;2022-08-21T03:03:47;101533.79;;;27.25;49.06
60487;BME280;46327;39.866;-0.072;2022-08-21T03:06:15;101533.84;;;26.82;49.99
60487;BME280;46327;39.866;-0.072;2022-08-21T03:08:43;101529.39;;;26.84;50.51
60487;BME280;46327;39.866;-0.072;2022-08-21T03:11:12;101530.75;;;26.87;50.56
60487;BME280;46327;39.866;-0.072;2022-08-21T03:13:39;101528.81;;;26.92;50.54
60487;BME280;46327;39.866;-0.072;2022-08-21T03:16:07;101526.49;;;26.71;50.89
60487;BME280;46327;39.866;-0.072;2022-08-21T03:18:35;101526.83;;;27.02;50.26
60487;BME280;46327;39.866;-0.072;2022-08-21T03:21:03;101530.08;;;26.43;50.84
60487;BME280;46327;39.866;-0.072;2022-08-21T03:23:30;101532.60;;;26.31;51.40
60487;BME280;46327;39.866;-0.072;2022-08-21T03:25:58;101533.97;;;26.50;51.46
60487;BME280;46327;39.866;-0.072;2022-08-21T03:28:25;101531.93;;;26.67;50.47
60487;BME280;46327;39.866;-0.072;2022-08-21T03:30:53;101530.27;;;26.86;50.01
60487;BME280;46327;39.866;-0.072;2022-08-21T03:33:21;101532.01;;;26.91;49.79
60487;BME280;46327;39.866;-0.072;2022-08-21T03:35:54;101534.78;;;26.71;50.06
60487;BME280;46327;39.866;-0.072;2022-08-21T03:38:22;101542.00;;;26.34;50.28
60487;BME280;46327;39.866;-0.072;2022-08-21T03:40:49;101546.04;;;26.37;50.54
60487;BME280;46327;39.866;-0.072;2022-08-21T03:43:17;101543.84;;;26.70;49.79
60487;BME280;46327;39.866;-0.072;2022-08-21T03:45:44;101542.37;;;26.86;49.36
60487;BME280;46327;39.866;-0.072;2022-08-21T03:48:12;101543.25;;;26.57;49.33
60487;BME280;46327;39.866;-0.072;2022-08-21T03:50:42;101551.41;;;26.53;48.85
60487;BME280;46327;39.866;-0.072;2022-08-21T03:53:11;101550.99;;;26.63;49.33
60487;BME280;46327;39.866;-0.072;2022-08-21T03:55:40;101548.50;;;26.01;50.59
60487;BME280;46327;39.866;-0.072;2022-08-21T03:58:07;101545.64;;;25.96;50.69
60487;BME280;46327;39.866;-0.072;2022-08-21T04:00:35;101543.19;;;25.96;50.64
60487;BME280;46327;39.866;-0.072;2022-08-21T04:03:02;101540.83;;;26.29;49.90
60487;BME280;46327;39.866;-0.072;2022-08-21T04:05:30;101541.14;;;26.13;50.02
60487;BME280;46327;39.866;-0.072;2022-08-21T04:07:59;101543.20;;;26.51;49.36
60487;BME280;46327;39.866;-0.072;2022-08-21T04:10:29;101545.86;;;27.07;48.40
60487;BME280;46327;39.866;-0.072;2022-08-21T04:12:57;101544.68;;;26.97;48.55
60487;BME280;46327;39.866;-0.072;2022-08-21T04:15:26;101540.19;;;26.18;49.63
60487;BME280;46327;39.866;-0.072;2022-08-21T04:17:53;101537.67;;;27.21;48.65
60487;BME280;46327;39.866;-0.072;2022-08-21T04:20:21;101538.75;;;26.88;48.69
60487;BME280;46327;39.866;-0.072;2022-08-21T04:22:49;101539.87;;;26.54;49.38
60487;BME280;46327;39.866;-0.072;2022-08-21T04:25:17;101543.54;;;26.66;49.37
60487;BME280;46327;39.866;-0.072;2022-08-21T04:27:45;101546.29;;;26.55;49.42
60487;BME280;46327;39.866;-0.072;2022-08-21T04:30:14;101544.82;;;26.42;49.60
60487;BME280;46327;39.866;-0.072;2022-08-21T04:32:43;101545.69;;;26.03;50.21
60487;BME280;46327;39.866;-0.072;2022-08-21T04:35:11;101549.62;;;25.94;50.33
60487;BME280;46327;39.866;-0.072;2022-08-21T04:37:39;101546.57;;;25.91;49.92
60487;BME280;46327;39.866;-0.072;2022-08-21T04:40:08;101547.29;;;25.75;50.59
60487;BME280;46327;39.866;-0.072;2022-08-21T04:42:42;101549.93;;;26.14;50.23
60487;BME280;46327;39.866;-0.072;2022-08-21T04:45:14;101546.25;;;26.38;49.65
60487;BME280;46327;39.866;-0.072;2022-08-21T04:47:42;101549.59;;;26.08;50.08
60487;BME280;46327;39.866;-0.072;2022-08-21T04:50:10;101547.19;;;26.44;49.47
60487;BME280;46327;39.866;-0.072;2022-08-21T04:52:36;101546.16;;;26.16;49.49
60487;BME280;46327;39.866;-0.072;2022-08-21T04:55:04;101549.06;;;25.96;49.84
60487;BME280;46327;39.866;-0.072;2022-08-21T04:57:31;101552.03;;;26.43;49.61
60487;BME280;46327;39.866;-0.072;2022-08-21T05:00:03;101548.33;;;26.79;49.43
60487;BME280;46327;39.866;-0.072;2022-08-21T05:02:32;101548.64;;;26.57;49.95
60487;BME280;46327;39.866;-0.072;2022-08-21T05:05:00;101549.76;;;26.08;50.01
60487;BME280;46327;39.866;-0.072;2022-08-21T05:07:30;101553.52;;;26.03;50.57
60487;BME280;46327;39.866;-0.072;2022-08-21T05:09:59;101555.55;;;26.33;50.48
60487;BME280;46327;39.866;-0.072;2022-08-21T05:12:27;101559.00;;;25.90;50.37
60487;BME280;46327;39.866;-0.072;2022-08-21T05:14:54;101554.13;;;26.21;49.91
60487;BME280;46327;39.866;-0.072;2022-08-21T05:17:22;101554.79;;;26.34;50.43
60487;BME280;46327;39.866;-0.072;2022-08-21T05:19:49;101555.90;;;26.43;49.86
60487;BME280;46327;39.866;-0.072;2022-08-21T05:22:20;101557.43;;;26.04;49.96
60487;BME280;46327;39.866;-0.072;2022-08-21T05:24:48;101563.43;;;26.16;49.37
60487;BME280;46327;39.866;-0.072;2022-08-21T05:27:16;101563.20;;;25.89;50.11
60487;BME280;46327;39.866;-0.072;2022-08-21T05:29:43;101561.88;;;25.66;49.94
60487;BME280;46327;39.866;-0.072;2022-08-21T05:32:11;101564.05;;;25.77;50.44
60487;BME280;46327;39.866;-0.072;2022-08-21T05:34:39;101567.76;;;25.76;50.11
60487;BME280;46327;39.866;-0.072;2022-08-21T05:37:06;101571.23;;;25.95;50.13
60487;BME280;46327;39.866;-0.072;2022-08-21T05:39:34;101573.98;;;25.41;51.25
60487;BME280;46327;39.866;-0.072;2022-08-21T05:42:01;101573.54;;;25.50;51.35
60487;BME280;46327;39.866;-0.072;2022-08-21T05:44:29;101565.07;;;25.73;50.78
60487;BME280;46327;39.866;-0.072;2022-08-21T05:47:03;101570.73;;;25.95;50.16
60487;BME280;46327;39.866;-0.072;2022-08-21T05:49:30;101570.66;;;25.97;50.58
60487;BME280;46327;39.866;-0.072;2022-08-21T05:51:57;101568.01;;;25.93;50.23
60487;BME280;46327;39.866;-0.072;2022-08-21T05:54:25;101568.09;;;26.17;50.15
60487;BME280;46327;39.866;-0.072;2022-08-21T05:56:52;101572.53;;;25.61;50.84
60487;BME280;46327;39.866;-0.072;2022-08-21T05:59:20;101570.71;;;25.71;51.20
60487;BME280;46327;39.866;-0.072;2022-08-21T06:01:47;101568.43;;;25.98;50.62
60487;BME280;46327;39.866;-0.072;2022-08-21T06:04:15;101574.80;;;25.76;51.01
60487;BME280;46327;39.866;-0.072;2022-08-21T06:06:42;101575.13;;;26.04;50.63
60487;BME280;46327;39.866;-0.072;2022-08-21T06:09:10;101580.95;;;25.86;50.54
60487;BME280;46327;39.866;-0.072;2022-08-21T06:11:37;101584.86;;;25.74;51.25
60487;BME280;46327;39.866;-0.072;2022-08-21T06:14:04;101585.74;;;25.83;51.13
60487;BME280;46327;39.866;-0.072;2022-08-21T06:16:32;101585.77;;;25.40;51.68
60487;BME280;46327;39.866;-0.072;2022-08-21T06:18:59;101587.81;;;25.99;51.27
60487;BME280;46327;39.866;-0.072;2022-08-21T06:21:26;101588.03;;;26.17;51.02
60487;BME280;46327;39.866;-0.072;2022-08-21T06:23:54;101590.41;;;26.34;50.55
60487;BME280;46327;39.866;-0.072;2022-08-21T06:26:22;101591.10;;;26.10;51.16
60487;BME280;46327;39.866;-0.072;2022-08-21T06:28:50;101592.15;;;26.46;51.03
60487;BME280;46327;39.866;-0.072;2022-08-21T06:31:19;101590.56;;;26.10;51.50
60487;BME280;46327;39.866;-0.072;2022-08-21T06:33:47;101587.32;;;26.50;50.86
60487;BME280;46327;39.866;-0.072;2022-08-21T06:36:16;101585.94;;;27.03;49.87
60487;BME280;46327;39.866;-0.072;2022-08-21T06:38:43;101590.94;;;26.65;50.70
60487;BME280;46327;39.866;-0.072;2022-08-21T06:41:11;101593.30;;;27.38;49.73
60487;BME280;46327;39.866;-0.072;2022-08-21T06:43:38;101588.67;;;27.18;50.00
60487;BME280;46327;39.866;-0.072;2022-08-21T06:46:06;101590.22;;;26.58;50.26
60487;BME280;46327;39.866;-0.072;2022-08-21T06:48:33;101593.11;;;26.92;49.94
60487;BME280;46327;39.866;-0.072;2022-08-21T06:51:00;101594.18;;;27.08;49.82
60487;BME280;46327;39.866;-0.072;2022-08-21T06:53:28;101596.99;;;27.45;49.47
60487;BME280;46327;39.866;-0.072;2022-08-21T06:55:55;101597.73;;;27.53;49.42
60487;BME280;46327;39.866;-0.072;2022-08-21T06:58:22;101599.34;;;27.20;50.44
60487;BME280;46327;39.866;-0.072;2022-08-21T07:00:51;101606.00;;;27.47;49.95
60487;BME280;46327;39.866;-0.072;2022-08-21T07:03:21;101609.92;;;27.40;50.10
60487;BME280;46327;39.866;-0.072;2022-08-21T07:05:49;101614.01;;;27.23;50.49
60487;BME280;46327;39.866;-0.072;2022-08-21T07:08:17;101613.39;;;27.28;49.86
60487;BME280;46327;39.866;-0.072;2022-08-21T07:10:45;101613.92;;;27.32;49.97
60487;BME280;46327;39.866;-0.072;2022-08-21T07:13:13;101610.93;;;27.72;49.66
60487;BME280;46327;39.866;-0.072;2022-08-21T07:15:41;101610.71;;;27.70;49.55
60487;BME280;46327;39.866;-0.072;2022-08-21T07:18:08;101610.92;;;27.77;49.95
60487;BME280;46327;39.866;-0.072;2022-08-21T07:20:35;101613.76;;;28.02;49.55
60487;BME280;46327;39.866;-0.072;2022-08-21T07:23:06;101613.32;;;27.80;49.40
60487;BME280;46327;39.866;-0.072;2022-08-21T07:25:34;101611.26;;;27.98;49.58
60487;BME280;46327;39.866;-0.072;2022-08-21T07:28:03;101612.48;;;27.81;49.73
60487;BME280;46327;39.866;-0.072;2022-08-21T07:30:31;101609.09;;;28.15;49.26
60487;BME280;46327;39.866;-0.072;2022-08-21T07:32:58;101608.24;;;28.15;49.15
60487;BME280;46327;39.866;-0.072;2022-08-21T07:35:25;101608.79;;;28.16;49.42
60487;BME280;46327;39.866;-0.072;2022-08-21T07:37:54;101608.03;;;28.23;49.65
60487;BME280;46327;39.866;-0.072;2022-08-21T07:40:22;101603.18;;;28.10;50.92
60487;BME280;46327;39.866;-0.072;2022-08-21T07:42:49;101604.77;;;27.93;50.83
60487;BME280;46327;39.866;-0.072;2022-08-21T07:45:18;101600.55;;;28.44;51.24
60487;BME280;46327;39.866;-0.072;2022-08-21T07:47:46;101600.39;;;28.21;51.52
60487;BME280;46327;39.866;-0.072;2022-08-21T07:50:14;101598.84;;;28.14;51.38
60487;BME280;46327;39.866;-0.072;2022-08-21T07:52:43;101599.96;;;28.59;51.50
60487;BME280;46327;39.866;-0.072;2022-08-21T07:55:13;101595.13;;;28.39;52.89
60487;BME280;46327;39.866;-0.072;2022-08-21T07:57:41;101595.15;;;28.48;53.58
60487;BME280;46327;39.866;-0.072;2022-08-21T08:00:11;101589.00;;;28.47;52.27
60487;BME280;46327;39.866;-0.072;2022-08-21T08:02:39;101588.75;;;28.00;53.71
60487;BME280;46327;39.866;-0.072;2022-08-21T08:05:09;101585.21;;;28.31;53.30
60487;BME280;46327;39.866;-0.072;2022-08-21T08:07:37;101588.41;;;28.40;53.48
60487;BME280;46327;39.866;-0.072;2022-08-21T08:10:07;101588.54;;;28.41;53.95
60487;BME280;46327;39.866;-0.072;2022-08-21T08:12:37;101590.62;;;28.64;55.40
60487;BME280;46327;39.866;-0.072;2022-08-21T08:15:09;101591.27;;;28.59;56.69
60487;BME280;46327;39.866;-0.072;2022-08-21T08:17:36;101589.38;;;28.61;55.81
60487;BME280;46327;39.866;-0.072;2022-08-21T08:20:05;101592.31;;;28.40;55.53
60487;BME280;46327;39.866;-0.072;2022-08-21T08:22:35;101589.88;;;28.62;56.72
60487;BME280;46327;39.866;-0.072;2022-08-21T08:25:03;101592.36;;;28.58;56.82
60487;BME280;46327;39.866;-0.072;2022-08-21T08:27:31;101592.74;;;28.48;57.38
60487;BME280;46327;39.866;-0.072;2022-08-21T08:29:58;101593.04;;;28.23;57.55
60487;BME280;46327;39.866;-0.072;2022-08-21T08:32:26;101588.11;;;28.43;57.93
60487;BME280;46327;39.866;-0.072;2022-08-21T08:34:53;101590.93;;;28.46;57.71
60487;BME280;46327;39.866;-0.072;2022-08-21T08:37:21;101591.31;;;28.31;56.72
60487;BME280;46327;39.866;-0.072;2022-08-21T08:39:49;101591.27;;;28.64;58.35
60487;BME280;46327;39.866;-0.072;2022-08-21T08:42:23;101589.73;;;28.26;59.70
60487;BME280;46327;39.866;-0.072;2022-08-21T08:44:57;101588.73;;;28.45;58.40
60487;BME280;46327;39.866;-0.072;2022-08-21T08:47:26;101587.30;;;28.54;58.48
60487;BME280;46327;39.866;-0.072;2022-08-21T08:49:59;101587.39;;;28.33;58.37
60487;BME280;46327;39.866;-0.072;2022-08-21T08:52:28;101587.17;;;28.71;57.65
60487;BME280;46327;39.866;-0.072;2022-08-21T08:55:02;101581.96;;;28.64;57.39
60487;BME280;46327;39.866;-0.072;2022-08-21T08:57:32;101582.95;;;29.01;57.07
60487;BME280;46327;39.866;-0.072;2022-08-21T09:00:04;101580.25;;;28.26;58.18
60487;BME280;46327;39.866;-0.072;2022-08-21T09:02:32;101573.14;;;28.19;58.41
60487;BME280;46327;39.866;-0.072;2022-08-21T09:05:00;101577.75;;;27.67;61.52
60487;BME280;46327;39.866;-0.072;2022-08-21T09:07:35;101571.03;;;27.83;59.90
60487;BME280;46327;39.866;-0.072;2022-08-21T09:10:13;101575.47;;;28.20;60.75
60487;BME280;46327;39.866;-0.072;2022-08-21T09:12:50;101577.36;;;28.13;60.61
60487;BME280;46327;39.866;-0.072;2022-08-21T09:15:26;101578.88;;;28.16;60.80
60487;BME280;46327;39.866;-0.072;2022-08-21T09:18:35;101575.60;;;28.45;57.91
60487;BME280;46327;39.866;-0.072;2022-08-21T09:21:16;101571.89;;;28.05;60.28
60487;BME280;46327;39.866;-0.072;2022-08-21T09:23:52;101570.40;;;28.21;59.74
60487;BME280;46327;39.866;-0.072;2022-08-21T09:26:24;101572.85;;;28.67;59.23
60487;BME280;46327;39.866;-0.072;2022-08-21T09:28:54;101571.91;;;28.79;58.56
60487;BME280;46327;39.866;-0.072;2022-08-21T09:31:25;101570.24;;;28.85;57.91
60487;BME280;46327;39.866;-0.072;2022-08-21T09:33:58;101575.10;;;28.29;58.56
60487;BME280;46327;39.866;-0.072;2022-08-21T09:36:32;101574.00;;;28.48;59.40
60487;BME280;46327;39.866;-0.072;2022-08-21T09:39:00;101573.65;;;28.61;58.71
60487;BME280;46327;39.866;-0.072;2022-08-21T09:41:31;101568.76;;;28.69;58.67
60487;BME280;46327;39.866;-0.072;2022-08-21T09:43:59;101568.69;;;28.81;59.08
60487;BME280;46327;39.866;-0.072;2022-08-21T09:46:27;101566.71;;;28.52;58.38
60487;BME280;46327;39.866;-0.072;2022-08-21T09:48:55;101565.11;;;28.20;59.12
60487;BME280;46327;39.866;-0.072;2022-08-21T09:51:25;101563.52;;;28.52;58.91
60487;BME280;46327;39.866;-0.072;2022-08-21T09:53:57;101561.60;;;28.26;58.48
60487;BME280;46327;39.866;-0.072;2022-08-21T09:56:30;101563.12;;;28.31;58.98
60487;BME280;46327;39.866;-0.072;2022-08-21T09:58:58;101563.27;;;28.10;61.04
60487;BME280;46327;39.866;-0.072;2022-08-21T10:01:26;101567.04;;;28.00;60.69
60487;BME280;46327;39.866;-0.072;2022-08-21T10:04:03;101569.62;;;27.95;59.77
60487;BME280;46327;39.866;-0.072;2022-08-21T10:06:31;101570.19;;;28.02;60.48
60487;BME280;46327;39.866;-0.072;2022-08-21T10:09:05;101576.34;;;28.29;59.97
60487;BME280;46327;39.866;-0.072;2022-08-21T10:11:35;101576.12;;;28.09;60.76
60487;BME280;46327;39.866;-0.072;2022-08-21T10:14:11;101577.30;;;28.00;60.45
60487;BME280;46327;39.866;-0.072;2022-08-21T10:16:47;101574.01;;;28.16;60.32
60487;BME280;46327;39.866;-0.072;2022-08-21T10:19:22;101570.86;;;28.73;59.22
60487;BME280;46327;39.866;-0.072;2022-08-21T10:22:00;101571.13;;;28.54;60.02
60487;BME280;46327;39.866;-0.072;2022-08-21T10:24:33;101564.56;;;27.72;60.45
60487;BME280;46327;39.866;-0.072;2022-08-21T10:27:14;101567.17;;;28.11;60.42
60487;BME280;46327;39.866;-0.072;2022-08-21T10:29:49;101569.37;;;28.21;59.37
60487;BME280;46327;39.866;-0.072;2022-08-21T10:32:27;101567.24;;;28.70;59.64
60487;BME280;46327;39.866;-0.072;2022-08-21T10:35:02;101565.79;;;28.71;59.64
60487;BME280;46327;39.866;-0.072;2022-08-21T10:37:42;101560.42;;;28.64;59.35
60487;BME280;46327;39.866;-0.072;2022-08-21T10:40:18;101558.04;;;28.48;60.07
60487;BME280;46327;39.866;-0.072;2022-08-21T10:42:54;101555.16;;;28.48;60.47
60487;BME280;46327;39.866;-0.072;2022-08-21T10:45:36;101552.58;;;28.20;60.98
60487;BME280;46327;39.866;-0.072;2022-08-21T10:48:07;101550.11;;;28.23;61.02
60487;BME280;46327;39.866;-0.072;2022-08-21T10:50:39;101552.54;;;28.32;60.76
60487;BME280;46327;39.866;-0.072;2022-08-21T10:53:29;101546.42;;;28.08;60.78
60487;BME280;46327;39.866;-0.072;2022-08-21T10:56:15;101540.11;;;27.90;61.45
60487;BME280;46327;39.866;-0.072;2022-08-21T10:58:49;101534.32;;;28.35;60.47
60487;BME280;46327;39.866;-0.072;2022-08-21T11:01:23;101531.70;;;28.13;60.71
60487;BME280;46327;39.866;-0.072;2022-08-21T11:03:53;101530.81;;;28.24;60.89
60487;BME280;46327;39.866;-0.072;2022-08-21T11:06:24;101530.64;;;28.39;59.90
60487;BME280;46327;39.866;-0.072;2022-08-21T11:08:55;101526.97;;;28.39;60.93
60487;BME280;46327;39.866;-0.072;2022-08-21T11:11:26;101520.19;;;28.37;60.18
60487;BME280;46327;39.866;-0.072;2022-08-21T11:13:59;101511.13;;;28.35;60.79
60487;BME280;46327;39.866;-0.072;2022-08-21T11:16:33;101508.65;;;28.28;60.45
60487;BME280;46327;39.866;-0.072;2022-08-21T11:19:09;101507.67;;;28.50;60.52
60487;BME280;46327;39.866;-0.072;2022-08-21T11:21:43;101503.45;;;28.04;60.44
60487;BME280;46327;39.866;-0.072;2022-08-21T11:24:24;101502.91;;;28.78;60.45
60487;BME280;46327;39.866;-0.072;2022-08-21T11:27:01;101495.37;;;28.38;60.69
60487;BME280;46327;39.866;-0.072;2022-08-21T11:29:34;101490.86;;;27.86;61.46
60487;BME280;46327;39.866;-0.072;2022-08-21T11:32:20;101493.99;;;28.38;60.93
60487;BME280;46327;39.866;-0.072;2022-08-21T11:35:00;101488.71;;;28.44;60.82
60487;BME280;46327;39.866;-0.072;2022-08-21T11:37:46;101485.56;;;28.46;60.72
60487;BME280;46327;39.866;-0.072;2022-08-21T11:40:29;101488.05;;;28.43;60.33
60487;BME280;46327;39.866;-0.072;2022-08-21T11:43:09;101484.33;;;28.48;60.30
60487;BME280;46327;39.866;-0.072;2022-08-21T11:45:44;101479.13;;;28.16;60.97
60487;BME280;46327;39.866;-0.072;2022-08-21T11:48:21;101475.24;;;28.67;60.98
60487;BME280;46327;39.866;-0.072;2022-08-21T11:50:53;101474.14;;;28.73;60.28
60487;BME280;46327;39.866;-0.072;2022-08-21T11:53:24;101468.34;;;28.34;61.35
60487;BME280;46327;39.866;-0.072;2022-08-21T11:55:59;101461.16;;;27.82;62.18
60487;BME280;46327;39.866;-0.072;2022-08-21T11:58:32;101459.33;;;28.35;60.96
60487;BME280;46327;39.866;-0.072;2022-08-21T12:01:07;101456.49;;;28.21;61.34
60487;BME280;46327;39.866;-0.072;2022-08-21T12:03:38;101455.01;;;28.43;60.71
60487;BME280;46327;39.866;-0.072;2022-08-21T12:06:11;101450.28;;;28.78;59.79
60487;BME280;46327;39.866;-0.072;2022-08-21T12:08:40;101454.85;;;28.28;60.44
60487;BME280;46327;39.866;-0.072;2022-08-21T12:11:10;101456.16;;;28.40;60.50
60487;BME280;46327;39.866;-0.072;2022-08-21T12:13:54;101457.07;;;28.43;60.52
60487;BME280;46327;39.866;-0.072;2022-08-21T12:16:30;101453.56;;;27.92;61.64
60487;BME280;46327;39.866;-0.072;2022-08-21T12:19:04;101451.11;;;28.29;60.86
60487;BME280;46327;39.866;-0.072;2022-08-21T12:21:31;101448.82;;;28.16;60.65
60487;BME280;46327;39.866;-0.072;2022-08-21T12:24:04;101448.61;;;28.37;60.45
60487;BME280;46327;39.866;-0.072;2022-08-21T12:26:34;101446.24;;;28.30;60.92
60487;BME280;46327;39.866;-0.072;2022-08-21T12:29:12;101440.85;;;28.59;59.66
60487;BME280;46327;39.866;-0.072;2022-08-21T12:31:52;101437.94;;;27.96;60.96
60487;BME280;46327;39.866;-0.072;2022-08-21T12:34:21;101434.35;;;28.66;59.78
60487;BME280;46327;39.866;-0.072;2022-08-21T12:36:54;101431.42;;;28.15;61.21
60487;BME280;46327;39.866;-0.072;2022-08-21T12:39:25;101429.56;;;28.16;61.38
60487;BME280;46327;39.866;-0.072;2022-08-21T12:41:58;101429.90;;;28.29;60.68
60487;BME280;46327;39.866;-0.072;2022-08-21T12:44:30;101429.04;;;28.15;61.11
60487;BME280;46327;39.866;-0.072;2022-08-21T12:47:06;101428.69;;;28.14;60.43
60487;BME280;46327;39.866;-0.072;2022-08-21T12:49:36;101422.56;;;28.46;60.48
60487;BME280;46327;39.866;-0.072;2022-08-21T12:52:14;101418.30;;;28.26;60.22
60487;BME280;46327;39.866;-0.072;2022-08-21T12:54:44;101419.38;;;28.00;60.63